Home > Products > Valid Products > TAF

000
FTUS44 KTSA 161700
TAFMLC
TAF
KMLC 161720Z 1618/1718 17019G28KT P6SM SCT250
     FM170100 16007KT P6SM SCT250
     FM171400 10006KT P6SM BKN100=



000
FTUS44 KTSA 161700
TAFXNA
TAF
KXNA 161720Z 1618/1718 19015G27KT P6SM SCT250
     FM170000 17013KT P6SM SCT250
     FM170400 VRB03KT P6SM BKN250
     FM171400 12006KT P6SM BKN100=



000
FTUS44 KTSA 161700
TAFFSM
TAF
KFSM 161720Z 1618/1718 15013G20KT P6SM SCT250
     FM170100 14005KT P6SM SCT250
     FM170600 08004KT P6SM BKN250
     FM171400 10006KT P6SM BKN100=



000
FTUS44 KTSA 161700
TAFFYV
TAF
KFYV 161720Z 1618/1718 15015G26KT P6SM SCT250
     FM170000 17012KT P6SM SCT250
     FM170400 VRB03KT P6SM BKN250
     FM171400 12006KT P6SM BKN100=



000
FTUS44 KTSA 161700
TAFRVS
TAF
KRVS 161720Z 1618/1718 20016G28KT P6SM SCT250
     FM170100 17008KT P6SM SCT250
     FM170600 14003KT P6SM BKN250
     FM171400 06005KT P6SM BKN100=



000
FTUS44 KTSA 161700
TAFTUL
TAF
KTUL 161720Z 1618/1718 17027G35KT P6SM SCT250
     FM170000 17010G18KT P6SM SCT250
     FM170600 15004KT P6SM BKN250
     FM171400 06007KT P6SM BKN100=



000
FTUS44 KTSA 161100
TAFFYV
TAF
KFYV 161120Z 1612/1712 16007KT P6SM SCT250 WS020/18040KT
     FM161400 19012G20KT P6SM SCT250
     FM161700 18018G25KT P6SM SCT250
     FM170000 17012KT P6SM SCT250
     FM170400 VRB03KT P6SM BKN250=



000
FTUS44 KTSA 161100
TAFRVS
TAF
KRVS 161120Z 1612/1712 17006KT P6SM SCT250 WS020/18040KT
     FM161400 19013G20KT P6SM SCT250
     FM161700 19020G27KT P6SM SCT250
     FM170100 17008KT P6SM SCT250
     FM170600 14003KT P6SM BKN250=



000
FTUS44 KTSA 161100
TAFXNA
TAF
KXNA 161120Z 1612/1712 17007KT P6SM SCT250 WS020/18040KT
     FM161500 19014G21KT P6SM SCT250
     FM161700 18020G28KT P6SM SCT250
     FM170000 17013KT P6SM SCT250
     FM170400 VRB03KT P6SM BKN250=



000
FTUS44 KTSA 161100
TAFFSM
TAF
KFSM 161120Z 1612/1712 08007KT P6SM SCT250 WS020/18040KT
     FM161500 13010KT P6SM SCT250
     FM161700 16014G21KT P6SM SCT250
     FM170100 14005KT P6SM SCT250
     FM170600 08004KT P6SM BKN250=



000
FTUS44 KTSA 161100
TAFTUL
TAF
KTUL 161120Z 1612/1712 17014KT P6SM SCT250 WS020/18040KT
     FM161400 19015G23KT P6SM SCT250
     FM161700 19022G32KT P6SM SCT250
     FM170000 17010G18KT P6SM SCT250
     FM170600 15004KT P6SM BKN250=



000
FTUS44 KTSA 161100
TAFMLC
TAF
KMLC 161120Z 1612/1712 16005KT P6SM SCT250 WS020/18040KT
     FM161400 19012G20KT P6SM SCT250
     FM161700 18018G26KT P6SM SCT250
     FM170100 16007KT P6SM SCT250=



000
FTUS44 KTSA 160500
TAFFYV
TAF
KFYV 160520Z 1606/1706 00000KT P6SM SCT250 WS020/18040KT
     FM161500 19012G20KT P6SM SCT250
     FM161700 18015G24KT P6SM SCT250
     FM170100 17004KT P6SM SCT250=



000
FTUS44 KTSA 160500
TAFMLC
TAF
KMLC 160520Z 1606/1706 16005KT P6SM SCT250 WS020/18040KT
     FM161400 19012G20KT P6SM SCT250
     FM161700 18015G24KT P6SM SCT250
     FM170100 16007KT P6SM SCT250=



000
FTUS44 KTSA 160500
TAFTUL
TAF
KTUL 160520Z 1606/1706 16009KT P6SM SCT250 WS020/18040KT
     FM161400 19013G22KT P6SM SCT250
     FM161700 19020G30KT P6SM SCT250
     FM170100 17010G18KT P6SM SCT250=



000
FTUS44 KTSA 160500
TAFFSM
TAF
KFSM 160520Z 1606/1706 08005KT P6SM SCT250 WS020/18040KT
     FM161600 16012G20KT P6SM SCT250
     FM170100 14005KT P6SM SCT250=



000
FTUS44 KTSA 160500
TAFRVS
TAF
KRVS 160520Z 1606/1706 17006KT P6SM SCT250 WS020/18040KT
     FM161400 19011G20KT P6SM SCT250
     FM161700 19018G27KT P6SM SCT250
     FM170100 17008KT P6SM SCT250=



000
FTUS44 KTSA 160500
TAFXNA
TAF
KXNA 160520Z 1606/1706 15006KT P6SM SCT250 WS020/18040KT
     FM161500 19012G20KT P6SM SCT250
     FM161700 18015G24KT P6SM SCT250
     FM170100 16005KT P6SM SCT250=



000
FTUS44 KTSA 152300
TAFMLC
TAF
KMLC 152320Z 1600/1624 12003KT P6SM SKC
     FM160300 19005KT P6SM SCT250 WS020/18045KT
     FM161400 19012G20KT P6SM SCT250
     FM161700 18015G24KT P6SM SCT250=



000
FTUS44 KTSA 152300
TAFXNA
TAF
KXNA 152320Z 1600/1624 00000KT P6SM SCT250
     FM160600 18003KT P6SM SCT250 WS020/18040KT
     FM161500 19012G20KT P6SM SCT250
     FM161700 18015G24KT P6SM SCT250=



000
FTUS44 KTSA 152300
TAFFSM
TAF
KFSM 152320Z 1600/1624 19004KT P6SM SKC
     FM160600 07005KT P6SM SCT250 WS020/18040KT
     FM161600 16012G20KT P6SM SCT250=



000
FTUS44 KTSA 152300
TAFFYV
TAF
KFYV 152320Z 1600/1624 34005KT P6SM SCT250
     FM160600 18003KT P6SM SCT250 WS020/18040KT
     FM161500 19012G20KT P6SM SCT250
     FM161700 18015G24KT P6SM SCT250=



000
FTUS44 KTSA 152300
TAFTUL
TAF
KTUL 152320Z 1600/1624 17007KT P6SM BKN250
     FM160300 18009KT P6SM SCT250 WS020/18045KT
     FM161400 19013G22KT P6SM SCT250
     FM161700 19020G30KT P6SM SCT250=



000
FTUS44 KTSA 152300
TAFRVS
TAF
KRVS 152320Z 1600/1624 16008KT P6SM BKN250
     FM160300 17005KT P6SM SCT250 WS020/18045KT
     FM161400 19011G20KT P6SM SCT250
     FM161700 19018G27KT P6SM SCT250=



000
FTUS44 KTSA 151700
TAFRVS
TAF
KRVS 151720Z 1518/1618 VRB06KT P6SM SKC
     FM152100 19009KT P6SM SKC
     FM160300 17005KT P6SM SKC WS020/18045KT
     FM161400 19011G20KT P6SM SCT250=



000
FTUS44 KTSA 151700
TAFMLC
TAF
KMLC 151720Z 1518/1618 VRB04KT P6SM SKC
     FM160300 19005KT P6SM SKC WS020/18045KT
     FM161400 19012G20KT P6SM SCT250=



000
FTUS44 KTSA 151700
TAFFYV
TAF
KFYV 151720Z 1518/1618 36005KT P6SM SKC
     FM160600 18003KT P6SM SKC WS020/18040KT
     FM161500 19012G20KT P6SM SCT250=



000
FTUS44 KTSA 151700
TAFXNA
TAF
KXNA 151720Z 1518/1618 VRB03KT P6SM SKC
     FM160600 18003KT P6SM SKC WS020/18040KT
     FM161500 19012G20KT P6SM SCT250=



000
FTUS44 KTSA 151700
TAFTUL
TAF
KTUL 151720Z 1518/1618 VRB04KT P6SM SKC
     FM152100 19012KT P6SM SKC
     FM160300 18009KT P6SM SKC WS020/18045KT
     FM161400 19013G22KT P6SM SCT250=



000
FTUS44 KTSA 151700
TAFFSM
TAF
KFSM 151720Z 1518/1618 28007KT P6SM SKC
     FM160100 VRB04KT P6SM SKC
     FM160600 07005KT P6SM SKC WS020/18040KT
     FM161600 16012G20KT P6SM SCT250=



000
FTUS44 KTSA 151100
TAFFSM
TAF
KFSM 151125Z 1512/1612 25005KT P6SM SKC
     FM151600 29007KT P6SM SKC
     FM160100 VRB04KT P6SM SKC
     FM160800 06005KT P6SM SKC=



000
FTUS44 KTSA 151100
TAFMLC
TAF
KMLC 151125Z 1512/1612 00000KT P6SM SKC
     FM151600 24008KT P6SM SKC
     FM160100 19005KT P6SM SKC=



000
FTUS44 KTSA 151100
TAFTUL
TAF
KTUL 151125Z 1512/1612 29003KT P6SM SKC
     FM151600 29007KT P6SM SKC
     FM152100 19012KT P6SM SKC=



000
FTUS44 KTSA 151100
TAFFYV
TAF
KFYV 151125Z 1512/1612 35003KT P6SM SKC
     FM151600 27008KT P6SM SKC
     FM160100 18003KT P6SM SKC=



000
FTUS44 KTSA 151100
TAFRVS
TAF
KRVS 151125Z 1512/1612 00000KT P6SM SKC
     FM151600 24005KT P6SM SKC
     FM152100 19009KT P6SM SKC
     FM160100 18004KT P6SM SKC=



000
FTUS44 KTSA 151100
TAFXNA
TAF
KXNA 151125Z 1512/1612 32004KT P6SM SKC
     FM151600 27008KT P6SM SKC
     FM160100 18005KT P6SM SKC=



000
FTUS44 KTSA 150500
TAFFSM
TAF
KFSM 150520Z 1506/1606 32008KT P6SM SKC
     FM151600 29007KT P6SM SKC
     FM160100 VRB04KT P6SM SKC=



000
FTUS44 KTSA 150500
TAFRVS
TAF
KRVS 150520Z 1506/1606 00000KT P6SM SKC
     FM151600 VRB05KT P6SM SKC
     FM152100 19009KT P6SM SKC
     FM160100 18004KT P6SM SKC=



000
FTUS44 KTSA 150500
TAFXNA
TAF
KXNA 150520Z 1506/1606 32004KT P6SM SKC
     FM151600 27008KT P6SM SKC
     FM160100 VRB03KT P6SM SKC=



000
FTUS44 KTSA 150500
TAFMLC
TAF
KMLC 150520Z 1506/1606 35004KT P6SM SKC
     FM151600 27006KT P6SM SKC
     FM160100 VRB03KT P6SM SKC=



000
FTUS44 KTSA 150500
TAFTUL
TAF
KTUL 150520Z 1506/1606 29003KT P6SM SKC
     FM151600 29007KT P6SM SKC
     FM152100 19010KT P6SM SKC=



000
FTUS44 KTSA 150500
TAFFYV
TAF
KFYV 150520Z 1506/1606 35003KT P6SM SKC
     FM151600 27008KT P6SM SKC
     FM160100 00000KT P6SM SKC=



000
FTUS44 KTSA 142300
TAFRVS
TAF
KRVS 142324Z 1500/1524 36014G22KT P6SM FEW060
     FM150200 VRB02KT P6SM SKC
     FM151600 VRB05KT P6SM SKC
     FM152100 19009KT P6SM SKC=



000
FTUS44 KTSA 142300
TAFTUL
TAF
KTUL 142324Z 1500/1524 36020G25KT P6SM FEW050
     FM150200 34006KT P6SM SKC
     FM151600 29007KT P6SM SKC
     FM152100 19010KT P6SM SKC=



000
FTUS44 KTSA 142300
TAFXNA
TAF
KXNA 142324Z 1500/1524 35016KT P6SM OVC045
     FM150300 32006KT P6SM SKC
     FM151600 27008KT P6SM SKC=



000
FTUS44 KTSA 142300
TAFFSM
TAF
KFSM 142324Z 1500/1524 35016G23KT P6SM BKN035
     FM150300 33009KT P6SM SKC
     FM151600 29007KT P6SM SKC=



000
FTUS44 KTSA 142300
TAFMLC
TAF
KMLC 142324Z 1500/1524 35017G22KT P6SM BKN050
     FM150200 34003KT P6SM SKC
     FM151600 27006KT P6SM SKC=



000
FTUS44 KTSA 142300
TAFFYV
TAF
KFYV 142324Z 1500/1524 34016G21KT P6SM OVC040
     FM150300 32006KT P6SM SKC
     FM151600 27008KT P6SM SKC=



000
FTUS44 KTSA 142100 AAB
TAFXNA
TAF AMD
KXNA 142103Z 1421/1518 35016G20KT P6SM SCT022 BKN030 OVC060
     FM150100 34012G18KT P6SM BKN030
     FM150300 32003KT P6SM SKC=



000
FTUS44 KTSA 142100 AAB
TAFFYV
TAF AMD
KFYV 142102Z 1421/1518 35013G26KT P6SM BKN022 OVC030
     FM150100 34012G18KT P6SM BKN030
     FM150300 32003KT P6SM SKC=



000
FTUS44 KTSA 142000 AAA
TAFFYV
TAF AMD
KFYV 142007Z 1420/1518 34013G20KT P6SM OVC019
     FM150100 34012G18KT P6SM BKN030
     FM150300 32003KT P6SM SKC=



000
FTUS44 KTSA 142000 AAA
TAFXNA
TAF AMD
KXNA 142007Z 1420/1518 33010G22KT P6SM BKN019 OVC025
     FM150100 34012G18KT P6SM BKN030
     FM150300 32003KT P6SM SKC=



000
FTUS44 KTSA 141900 AAA
TAFTUL
TAF AMD
KTUL 141921Z 1419/1518 34019G28KT P6SM BKN035 BKN060
     FM142300 34015G24KT P6SM BKN060
     FM150100 34003KT P6SM SKC=



000
FTUS44 KTSA 141900 AAA
TAFRVS
TAF AMD
KRVS 141921Z 1419/1518 33010G20KT P6SM BKN035 OVC040
     FM150100 VRB02KT P6SM SKC=



000
FTUS44 KTSA 141700
TAFFSM
TAF
KFSM 141720Z 1418/1518 32017KT P6SM VCSH BKN025
     FM142300 33020G28KT P6SM BKN040
     FM150300 33008KT P6SM SKC=



000
FTUS44 KTSA 141700
TAFMLC
TAF
KMLC 141720Z 1418/1518 35021G29KT P6SM VCSH BKN025 OVC030
     FM142000 36021G28KT P6SM BKN040
     FM150200 34003KT P6SM SKC=



000
FTUS44 KTSA 141700
TAFRVS
TAF
KRVS 141720Z 1418/1518 33011G19KT P6SM BKN015
      TEMPO 1418/1420 -RASN BKN025
     FM142200 34018G25KT P6SM BKN040
     FM150100 VRB02KT P6SM SKC=



000
FTUS44 KTSA 141700
TAFTUL
TAF
KTUL 141720Z 1418/1518 33019G29KT P6SM OVC025
      TEMPO 1418/1420 -RASN BKN015
     FM142000 34018G25KT P6SM BKN040
     FM150100 34003KT P6SM SKC=



000
FTUS44 KTSA 141700
TAFFYV
TAF
KFYV 141720Z 1418/1518 33011G19KT P6SM BKN015 OVC022
     FM141900 34014G22KT P6SM VCSH BKN025
     FM150100 34012G18KT P6SM BKN040
     FM150300 32003KT P6SM SKC=



000
FTUS44 KTSA 141700
TAFXNA
TAF
KXNA 141720Z 1418/1518 34014G19KT P6SM BKN015
     FM141900 34014G22KT P6SM VCSH BKN025
     FM150100 34012G18KT P6SM BKN040
     FM150300 32003KT P6SM SKC=



000
FTUS44 KTSA 141600 AAA
TAFFSM
TAF AMD
KFSM 141625Z 1416/1512 34014KT P6SM VCSH BKN020
     FM142000 33020G28KT P6SM BKN040
     FM150100 33018G24KT P6SM BKN050
     FM150300 33011KT P6SM SKC=



000
FTUS44 KTSA 141600 AAA
TAFXNA
TAF AMD
KXNA 141625Z 1416/1512 35014G22KT P6SM OVC015
     FM141900 34015G25KT P6SM VCSH BKN040
     FM150100 34012G18KT P6SM BKN040
     FM150300 32003KT P6SM SKC=



000
FTUS44 KTSA 141600 AAA
TAFMLC
TAF AMD
KMLC 141623Z 1416/1512 34018G25KT P6SM -RA OVC015
     FM142000 36021G28KT P6SM BKN040
     FM150000 35018KT P6SM SKC
     FM150200 34005KT P6SM SKC=



000
FTUS44 KTSA 141600 AAA
TAFFYV
TAF AMD
KFYV 141623Z 1416/1512 34015G20KT P6SM BKN015 OVC028
     FM141900 34014G22KT P6SM VCSH BKN040
     FM150100 34012G18KT P6SM BKN040
     FM150300 32003KT P6SM SKC=



000
FTUS44 KTSA 141600 AAA
TAFTUL
TAF AMD
KTUL 141622Z 1416/1512 35022G27KT P6SM BKN025
      TEMPO 1416/1420 -RASN BKN015
     FM142000 34018G25KT P6SM BKN040
     FM150100 34003KT P6SM SKC=



000
FTUS44 KTSA 141100
TAFXNA
TAF
KXNA 141140Z 1412/1512 32008KT 4SM BR OVC007
     FM141400 35008KT P6SM OVC015
     FM141700 34015G25KT P6SM OVC025
     FM142100 34015G25KT P6SM VCSH BKN040
     FM150100 34012G18KT P6SM BKN040
     FM150300 32003KT P6SM SKC=



000
FTUS44 KTSA 141100
TAFFYV
TAF
KFYV 141140Z 1412/1512 25011KT 4SM BR OVC008
     FM141400 35008KT P6SM OVC015
     FM141700 34013G20KT P6SM OVC025
     FM142100 34014G22KT P6SM VCSH BKN040
     FM150100 34012G18KT P6SM BKN040
     FM150300 32003KT P6SM SKC=



000
FTUS44 KTSA 141100
TAFMLC
TAF
KMLC 141140Z 1412/1512 35011G19KT P6SM SCT015 OVC025
      TEMPO 1412/1416 BKN015
     FM142000 36021G28KT P6SM BKN040
     FM150000 35018KT P6SM SKC
     FM150200 34005KT P6SM SKC=



000
FTUS44 KTSA 141100
TAFTUL
TAF
KTUL 141140Z 1412/1512 35014G24KT P6SM -DZ BKN015 OVC025
      TEMPO 1415/1418 -SHRA
     FM142000 34018G25KT P6SM BKN040
     FM150100 34003KT P6SM SKC=



000
FTUS44 KTSA 141100
TAFRVS
TAF
KRVS 141140Z 1412/1512 36011G20KT P6SM SCT015 OVC025
      TEMPO 1412/1416 5SM -DZ BKN015
     FM142000 35013G20KT P6SM BKN040
     FM150100 00000KT P6SM SKC=



000
FTUS44 KTSA 141100
TAFFSM
TAF
KFSM 141140Z 1412/1512 32015KT P6SM OVC015
     FM141500 32017G24KT P6SM VCSH OVC025
     FM142000 33020G28KT P6SM BKN040
     FM150100 33018G24KT P6SM BKN050
     FM150300 33011KT P6SM SKC=



000
FTUS44 KTSA 140800 AAB
TAFMLC
TAF AMD
KMLC 140815Z 1408/1506 35011G19KT P6SM OVC013
     FM141300 35015G22KT P6SM OVC025
     FM141900 36021G28KT P6SM OVC035
     FM142100 36020G27KT P6SM BKN040
     FM142300 35018KT P6SM SCT100
     FM150200 34006KT P6SM SKC=



000
FTUS44 KTSA 140800 AAA
TAFTUL
TAF AMD
KTUL 140814Z 1408/1506 35014G21KT P6SM BKN020 OVC026
     FM141500 35020G27KT 6SM -SHRA OVC015
     FM141900 34022G28KT P6SM OVC025
     FM142100 34020G27KT P6SM BKN040
     FM142300 34015KT P6SM SCT100
     FM150200 34006KT P6SM SKC=



000
FTUS44 KTSA 140800 AAA
TAFRVS
TAF AMD
KRVS 140814Z 1408/1506 32008G15KT P6SM OVC021
     FM141500 35015G22KT 6SM -SHRA OVC015
     FM141900 34015G22KT P6SM OVC025
     FM142100 34014G20KT P6SM BKN040
     FM142300 34010KT P6SM SCT100
     FM150200 34003KT P6SM SKC=



000
FTUS44 KTSA 140700 AAA
TAFXNA
TAF AMD
KXNA 140744Z 1408/1506 32008KT P6SM OVC007
     FM141400 34006KT P6SM OVC015
     FM141600 34008G15KT P6SM VCSH OVC015
     FM142000 34013G20KT P6SM OVC025
     FM142300 34013G30KT P6SM BKN040
     FM150300 33006KT P6SM SKC=



000
FTUS44 KTSA 140700 AAA
TAFMLC
TAF AMD
KMLC 140744Z 1408/1506 36011G19KT P6SM OVC013
     FM141300 35015G22KT P6SM OVC025
     FM141900 36021G28KT P6SM OVC035
     FM142100 36020G27KT P6SM BKN040
     FM142300 35018KT P6SM SCT100
     FM150200 34006KT P6SM SKC=



000
FTUS44 KTSA 140500
TAFMLC
TAF
KMLC 140520Z 1406/1506 34012KT P6SM OVC025
     FM141300 35015G22KT P6SM OVC025
     FM141900 36021G28KT P6SM OVC035
     FM142100 36020G27KT P6SM BKN040
     FM142300 35018KT P6SM SCT100
     FM150200 34006KT P6SM SKC=



000
FTUS44 KTSA 140500
TAFXNA
TAF
KXNA 140520Z 1406/1506 28017G23KT P6SM OVC009
     FM141400 34006KT P6SM OVC015
     FM141600 34008G15KT P6SM VCSH OVC015
     FM142000 34013G20KT P6SM OVC025
     FM142300 34013G30KT P6SM BKN040
     FM150300 33006KT P6SM SKC=



000
FTUS44 KTSA 140500
TAFTUL
TAF
KTUL 140520Z 1406/1506 33019G26KT P6SM OVC015
     FM141500 35020G27KT 6SM -SHRA OVC015
     FM141900 34022G28KT P6SM OVC025
     FM142100 34020G27KT P6SM BKN040
     FM142300 34015KT P6SM SCT100
     FM150200 34006KT P6SM SKC=



000
FTUS44 KTSA 140500
TAFFYV
TAF
KFYV 140520Z 1406/1506 25011KT P6SM BKN008 OVC015
     FM141400 34006KT P6SM OVC015
     FM141600 34008G15KT P6SM VCSH OVC015
     FM142000 34013G20KT P6SM OVC025
     FM142300 34013G30KT P6SM BKN040
     FM150300 33006KT P6SM SKC=



000
FTUS44 KTSA 140500
TAFFSM
TAF
KFSM 140520Z 1406/1506 31012KT P6SM BKN012 OVC020
     FM140900 33013KT P6SM OVC012
     FM141700 32017G24KT P6SM VCSH OVC025
     FM142100 33019G26KT P6SM OVC025
     FM142300 33018KT P6SM BKN045
     FM150300 30010KT P6SM SKC=



000
FTUS44 KTSA 140500
TAFRVS
TAF
KRVS 140520Z 1406/1506 33009G17KT P6SM OVC015
     FM141500 35015G22KT 6SM -SHRA OVC015
     FM141900 34015G22KT P6SM OVC025
     FM142100 34014G20KT P6SM BKN040
     FM142300 34010KT P6SM SCT100
     FM150200 34003KT P6SM SKC=



000
FTUS44 KTSA 140300 AAB
TAFMLC
TAF AMD
KMLC 140300Z 1403/1424 31009G18KT P6SM BKN015 OVC025
     FM140600 32017G24KT P6SM OVC015
     FM141000 35018G25KT P6SM OVC020
     FM142100 35024G31KT P6SM BKN045=



000
FTUS44 KTSA 140200 AAA
TAFFSM
TAF AMD
KFSM 140259Z 1403/1424 13010KT P6SM VCTS SCT070 OVC080CB
     FM140400 29012KT P6SM OVC025
     FM141800 32015G22KT P6SM OVC025
     FM142300 33021G27KT P6SM BKN045=



000
FTUS44 KTSA 140200 AAA
TAFXNA
TAF AMD
KXNA 140222Z 1402/1424 16018KT P6SM SCT030 OVC080
     FM140400 24011G19KT P6SM SCT015 OVC080
      TEMPO 1404/1406 BKN015
     FM140600 28015G21KT P6SM OVC015
     FM141700 34013G20KT P6SM OVC020
     FM142300 34013G20KT P6SM BKN035=



000
FTUS44 KTSA 140200 AAA
TAFMLC
TAF AMD
KMLC 140220Z 1402/1424 VRB03KT P6SM SCT090
     FM140300 29019G25KT P6SM SCT025 BKN090
     FM140600 32017G24KT P6SM BKN030
     FM141000 35018G25KT P6SM OVC025
     FM142100 35024G31KT P6SM BKN045=



000
FTUS44 KTSA 140100 AAA
TAFRVS
TAF AMD
KRVS 140102Z 1401/1424 33013G22KT P6SM OVC015
     FM141500 34015G25KT P6SM VCSH OVC025
     FM142000 35015G23KT P6SM BKN045=



000
FTUS44 KTSA 140100 AAA
TAFTUL
TAF AMD
KTUL 140101Z 1401/1424 31020G26KT P6SM OVC015
     FM141500 34019G28KT P6SM VCSH OVC025
     FM142000 35018G26KT P6SM BKN045=



000
FTUS44 KTSA 132300
TAFFYV
TAF
KFYV 132339Z 1400/1424 18020G34KT 6SM -TSRA SCT040CB BKN100
      TEMPO 1400/1402 VRB25G45KT 1 1/2SM +TSRA OVC030CB
     FM140300 24011G19KT P6SM VCSH SCT015 OVC100
      TEMPO 1403/1406 BKN015
     FM140600 28015G21KT P6SM OVC015
     FM141700 34013G20KT P6SM OVC020
     FM142300 34013G20KT P6SM BKN035=



000
FTUS44 KTSA 132300
TAFFSM
TAF
KFSM 132339Z 1400/1424 10006KT P6SM BKN100
     FM140100 16013KT 6SM -TSRA BKN040CB OVC100
      TEMPO 1401/1403 VRB25G45KT 1 1/2SM +TSRA OVC030CB
     FM140300 24017G24KT P6SM VCSH SCT030 BKN100
     FM140600 29012KT P6SM OVC025
     FM141800 32015G22KT P6SM OVC025
     FM142300 33021G27KT P6SM BKN045=



000
FTUS44 KTSA 132300
TAFRVS
TAF
KRVS 132339Z 1400/1424 29015G26KT P6SM SCT020 OVC090
      TEMPO 1401/1403 BKN020
     FM140300 33017G26KT P6SM OVC020
     FM141500 34015G25KT P6SM VCSH OVC025
     FM142000 35015G23KT P6SM BKN045=



000
FTUS44 KTSA 132300
TAFMLC
TAF
KMLC 132339Z 1400/1424 19015G28KT P6SM VCTS SCT040CB BKN100
      TEMPO 1400/1402 VRB25G45KT 1 1/2SM +TSRA OVC030CB
     FM140300 29019G25KT P6SM VCSH SCT025 BKN090
     FM140600 32017G24KT P6SM BKN030
     FM141000 35018G25KT P6SM OVC025
     FM142100 35024G31KT P6SM BKN045=



000
FTUS44 KTSA 132300
TAFXNA
TAF
KXNA 132339Z 1400/1424 19015G30KT 6SM -TSRA SCT040CB BKN100
      TEMPO 1400/1402 VRB25G45KT 1 1/2SM +TSRA OVC030CB
     FM140300 24011G19KT P6SM VCSH SCT015 OVC100
      TEMPO 1403/1406 BKN015
     FM140600 28015G21KT P6SM OVC015
     FM141700 34013G20KT P6SM OVC020
     FM142300 34013G20KT P6SM BKN035=



000
FTUS44 KTSA 132300
TAFTUL
TAF
KTUL 132339Z 1400/1424 29020G33KT P6SM SCT020 OVC090
      TEMPO 1401/1403 BKN020
     FM140300 33020G30KT P6SM OVC020
     FM141500 34019G28KT P6SM VCSH OVC025
     FM142000 35018G26KT P6SM BKN045=



    US Dept of Commerce
    National Oceanic and Atmospheric Administration
    National Weather Service
    1325 East West Highway
    Silver Spring, MD 20910
    Page Author: NWS Internet Services Team
Disclaimer
Information Quality
Credits
Glossary
Privacy Policy
Freedom of Information Act (FOIA)
About Us
Career Opportunities